sensor_id;sensor_type;location;lat;lon;timestamp;temperature;humidity
6863;DHT22;3470;48.738;9.616;2023-03-05T17:09:09;3.30;99.90
6863;DHT22;3470;48.738;9.616;2023-03-05T17:11:35;3.00;99.90
6863;DHT22;3470;48.738;9.616;2023-03-05T17:14:00;3.00;99.90
6863;DHT22;3470;48.738;9.616;2023-03-05T17:16:28;3.00;99.90
6863;DHT22;3470;48.738;9.616;2023-03-05T17:18:54;3.10;99.90
6863;DHT22;3470;48.738;9.616;2023-03-05T17:21:19;3.20;99.90
6863;DHT22;3470;48.738;9.616;2023-03-05T17:23:45;3.10;99.90
6863;DHT22;3470;48.738;9.616;2023-03-05T17:26:14;3.10;99.90
6863;DHT22;3470;48.738;9.616;2023-03-05T17:28:41;3.10;99.90
6863;DHT22;3470;48.738;9.616;2023-03-05T17:31:06;3.10;99.90
6863;DHT22;3470;48.738;9.616;2023-03-05T17:33:33;2.90;99.90
6863;DHT22;3470;48.738;9.616;2023-03-05T17:35:59;2.90;99.90
6863;DHT22;3470;48.738;9.616;2023-03-05T17:38:25;2.90;99.90
6863;DHT22;3470;48.738;9.616;2023-03-05T17:40:50;2.80;99.90
6863;DHT22;3470;48.738;9.616;2023-03-05T17:43:16;2.80;99.90
6863;DHT22;3470;48.738;9.616;2023-03-05T17:45:42;2.90;99.90
6863;DHT22;3470;48.738;9.616;2023-03-05T17:48:10;2.80;99.90
6863;DHT22;3470;48.738;9.616;2023-03-05T17:50:36;2.80;99.90
6863;DHT22;3470;48.738;9.616;2023-03-05T17:53:02;2.80;99.90
6863;DHT22;3470;48.738;9.616;2023-03-05T17:55:28;2.80;99.90
6863;DHT22;3470;48.738;9.616;2023-03-05T17:57:54;2.80;99.90
6863;DHT22;3470;48.738;9.616;2023-03-05T18:00:22;2.80;99.90
6863;DHT22;3470;48.738;9.616;2023-03-05T18:02:52;2.80;99.90
6863;DHT22;3470;48.738;9.616;2023-03-05T18:05:20;2.80;99.90
6863;DHT22;3470;48.738;9.616;2023-03-05T18:07:46;2.70;99.90
6863;DHT22;3470;48.738;9.616;2023-03-05T18:10:13;2.70;99.90
6863;DHT22;3470;48.738;9.616;2023-03-05T18:12:39;2.70;99.90
6863;DHT22;3470;48.738;9.616;2023-03-05T18:15:06;2.70;99.90
6863;DHT22;3470;48.738;9.616;2023-03-05T18:17:32;2.70;99.90
6863;DHT22;3470;48.738;9.616;2023-03-05T18:19:58;2.60;99.90
6863;DHT22;3470;48.738;9.616;2023-03-05T18:22:23;2.60;99.90
6863;DHT22;3470;48.738;9.616;2023-03-05T18:24:49;2.60;99.90
6863;DHT22;3470;48.738;9.616;2023-03-05T18:27:14;2.60;99.90
6863;DHT22;3470;48.738;9.616;2023-03-05T18:29:40;2.60;99.90
6863;DHT22;3470;48.738;9.616;2023-03-05T18:32:06;2.60;99.90
6863;DHT22;3470;48.738;9.616;2023-03-05T18:34:32;2.60;99.90
6863;DHT22;3470;48.738;9.616;2023-03-05T18:36:57;2.60;99.90
6863;DHT22;3470;48.738;9.616;2023-03-05T18:39:25;2.50;99.90
6863;DHT22;3470;48.738;9.616;2023-03-05T18:41:54;2.60;99.90
6863;DHT22;3470;48.738;9.616;2023-03-05T18:44:20;2.60;99.90
6863;DHT22;3470;48.738;9.616;2023-03-05T18:46:45;2.60;99.90
6863;DHT22;3470;48.738;9.616;2023-03-05T18:49:11;2.50;99.90
6863;DHT22;3470;48.738;9.616;2023-03-05T18:51:39;2.60;99.90
6863;DHT22;3470;48.738;9.616;2023-03-05T18:54:06;2.50;99.90
6863;DHT22;3470;48.738;9.616;2023-03-05T18:56:31;2.60;99.90
6863;DHT22;3470;48.738;9.616;2023-03-05T18:58:57;2.60;99.90
6863;DHT22;3470;48.738;9.616;2023-03-05T19:01:22;2.50;99.90
6863;DHT22;3470;48.738;9.616;2023-03-05T19:03:48;2.50;99.90
6863;DHT22;3470;48.738;9.616;2023-03-05T19:06:14;2.50;99.90
6863;DHT22;3470;48.738;9.616;2023-03-05T19:08:40;2.50;99.90
6863;DHT22;3470;48.738;9.616;2023-03-05T19:11:26;2.50;99.90
6863;DHT22;3470;48.738;9.616;2023-03-05T19:13:51;2.50;99.90
6863;DHT22;3470;48.738;9.616;2023-03-05T19:16:19;2.50;99.90
6863;DHT22;3470;48.738;9.616;2023-03-05T19:19:01;2.50;99.90
6863;DHT22;3470;48.738;9.616;2023-03-05T19:21:38;2.40;99.90
6863;DHT22;3470;48.738;9.616;2023-03-05T19:24:04;2.40;99.90
6863;DHT22;3470;48.738;9.616;2023-03-05T19:26:30;2.40;99.90
6863;DHT22;3470;48.738;9.616;2023-03-05T19:28:56;2.40;99.90
6863;DHT22;3470;48.738;9.616;2023-03-05T19:31:22;2.40;99.90
6863;DHT22;3470;48.738;9.616;2023-03-05T19:33:47;2.40;99.90
6863;DHT22;3470;48.738;9.616;2023-03-05T19:36:13;2.50;99.90
6863;DHT22;3470;48.738;9.616;2023-03-05T19:38:39;2.50;99.90
6863;DHT22;3470;48.738;9.616;2023-03-05T19:41:06;2.40;99.90
6863;DHT22;3470;48.738;9.616;2023-03-05T19:43:32;2.40;99.90
6863;DHT22;3470;48.738;9.616;2023-03-05T19:46:03;2.30;99.90
6863;DHT22;3470;48.738;9.616;2023-03-05T19:48:30;2.30;99.90
6863;DHT22;3470;48.738;9.616;2023-03-05T19:50:56;2.30;99.90
6863;DHT22;3470;48.738;9.616;2023-03-05T19:53:22;2.40;99.90
6863;DHT22;3470;48.738;9.616;2023-03-05T19:55:48;2.40;99.90
6863;DHT22;3470;48.738;9.616;2023-03-05T19:58:13;2.50;99.90
6863;DHT22;3470;48.738;9.616;2023-03-05T20:00:39;2.50;99.90
6863;DHT22;3470;48.738;9.616;2023-03-05T20:03:04;2.50;99.90
6863;DHT22;3470;48.738;9.616;2023-03-05T20:05:30;2.50;99.90
6863;DHT22;3470;48.738;9.616;2023-03-05T20:07:55;2.50;99.90
6863;DHT22;3470;48.738;9.616;2023-03-05T20:10:21;2.50;99.90
6863;DHT22;3470;48.738;9.616;2023-03-05T20:12:47;2.50;99.90
6863;DHT22;3470;48.738;9.616;2023-03-05T20:15:15;2.40;99.90
6863;DHT22;3470;48.738;9.616;2023-03-05T20:17:40;2.40;99.90
6863;DHT22;3470;48.738;9.616;2023-03-05T20:20:15;2.40;99.90
6863;DHT22;3470;48.738;9.616;2023-03-05T20:22:42;2.40;99.90
6863;DHT22;3470;48.738;9.616;2023-03-05T20:25:10;2.30;99.90
6863;DHT22;3470;48.738;9.616;2023-03-05T20:27:39;2.30;99.90
6863;DHT22;3470;48.738;9.616;2023-03-05T20:30:07;2.30;99.90
6863;DHT22;3470;48.738;9.616;2023-03-05T20:32:34;2.30;99.90
6863;DHT22;3470;48.738;9.616;2023-03-05T20:34:59;2.30;99.90
6863;DHT22;3470;48.738;9.616;2023-03-05T20:37:25;2.30;99.90
6863;DHT22;3470;48.738;9.616;2023-03-05T20:40:00;2.20;99.90
6863;DHT22;3470;48.738;9.616;2023-03-05T20:42:25;2.20;99.90
6863;DHT22;3470;48.738;9.616;2023-03-05T20:44:54;2.20;99.90
6863;DHT22;3470;48.738;9.616;2023-03-05T20:47:19;2.10;99.90
6863;DHT22;3470;48.738;9.616;2023-03-05T20:50:06;2.10;99.90
6863;DHT22;3470;48.738;9.616;2023-03-05T20:52:34;2.10;99.90
6863;DHT22;3470;48.738;9.616;2023-03-05T20:55:00;2.10;99.90
6863;DHT22;3470;48.738;9.616;2023-03-05T20:57:26;2.00;99.90
6863;DHT22;3470;48.738;9.616;2023-03-05T20:59:51;2.00;99.90
6863;DHT22;3470;48.738;9.616;2023-03-05T21:02:17;1.90;99.90
6863;DHT22;3470;48.738;9.616;2023-03-05T21:04:43;1.80;99.90
6863;DHT22;3470;48.738;9.616;2023-03-05T21:07:08;1.80;99.90
6863;DHT22;3470;48.738;9.616;2023-03-05T21:09:34;1.80;99.90
6863;DHT22;3470;48.738;9.616;2023-03-05T21:11:59;1.70;99.90
6863;DHT22;3470;48.738;9.616;2023-03-05T21:14:25;1.70;99.90
6863;DHT22;3470;48.738;9.616;2023-03-05T21:16:51;1.80;99.90
6863;DHT22;3470;48.738;9.616;2023-03-05T21:19:16;1.80;99.90
6863;DHT22;3470;48.738;9.616;2023-03-05T21:21:42;1.80;99.90
6863;DHT22;3470;48.738;9.616;2023-03-05T21:24:10;1.80;99.90
6863;DHT22;3470;48.738;9.616;2023-03-05T21:26:36;1.90;99.90
6863;DHT22;3470;48.738;9.616;2023-03-05T21:29:02;1.90;99.90
6863;DHT22;3470;48.738;9.616;2023-03-05T21:31:27;1.90;99.90
6863;DHT22;3470;48.738;9.616;2023-03-05T21:33:53;1.80;99.90
6863;DHT22;3470;48.738;9.616;2023-03-05T21:36:19;1.70;99.90
6863;DHT22;3470;48.738;9.616;2023-03-05T21:38:46;1.70;99.90
6863;DHT22;3470;48.738;9.616;2023-03-05T21:41:11;1.80;99.90
6863;DHT22;3470;48.738;9.616;2023-03-05T21:43:37;1.70;99.90
6863;DHT22;3470;48.738;9.616;2023-03-05T21:46:03;1.80;99.90
6863;DHT22;3470;48.738;9.616;2023-03-05T21:48:29;1.80;99.90
6863;DHT22;3470;48.738;9.616;2023-03-05T21:50:56;1.80;99.90
6863;DHT22;3470;48.738;9.616;2023-03-05T21:53:22;1.70;99.90
6863;DHT22;3470;48.738;9.616;2023-03-05T21:55:49;1.60;99.90
6863;DHT22;3470;48.738;9.616;2023-03-05T21:58:30;1.60;99.90
6863;DHT22;3470;48.738;9.616;2023-03-05T22:00:55;1.60;99.90
6863;DHT22;3470;48.738;9.616;2023-03-05T22:03:23;1.70;99.90
6863;DHT22;3470;48.738;9.616;2023-03-05T22:05:48;1.60;99.90
6863;DHT22;3470;48.738;9.616;2023-03-05T22:08:14;1.60;99.90
6863;DHT22;3470;48.738;9.616;2023-03-05T22:10:40;1.60;99.90
6863;DHT22;3470;48.738;9.616;2023-03-05T22:13:07;1.50;99.90
6863;DHT22;3470;48.738;9.616;2023-03-05T22:15:48;1.50;99.90
6863;DHT22;3470;48.738;9.616;2023-03-05T22:18:16;1.50;99.90
6863;DHT22;3470;48.738;9.616;2023-03-05T22:20:42;1.50;99.90
6863;DHT22;3470;48.738;9.616;2023-03-05T22:23:08;1.50;99.90
6863;DHT22;3470;48.738;9.616;2023-03-05T22:25:33;1.50;99.90
6863;DHT22;3470;48.738;9.616;2023-03-05T22:28:00;1.50;99.90
6863;DHT22;3470;48.738;9.616;2023-03-05T22:30:26;1.40;99.90
6863;DHT22;3470;48.738;9.616;2023-03-05T22:32:52;1.40;99.90
6863;DHT22;3470;48.738;9.616;2023-03-05T22:35:17;1.40;99.90
6863;DHT22;3470;48.738;9.616;2023-03-05T22:37:43;1.40;99.90
6863;DHT22;3470;48.738;9.616;2023-03-05T22:40:13;1.50;99.90
6863;DHT22;3470;48.738;9.616;2023-03-05T22:42:39;1.40;99.90
6863;DHT22;3470;48.738;9.616;2023-03-05T22:45:07;1.40;99.90
6863;DHT22;3470;48.738;9.616;2023-03-05T22:47:33;1.40;99.90
6863;DHT22;3470;48.738;9.616;2023-03-05T22:50:07;1.40;99.90
6863;DHT22;3470;48.738;9.616;2023-03-05T22:52:33;1.40;99.90
6863;DHT22;3470;48.738;9.616;2023-03-05T22:55:00;1.40;99.90
6863;DHT22;3470;48.738;9.616;2023-03-05T22:57:28;1.40;99.90
6863;DHT22;3470;48.738;9.616;2023-03-05T22:59:53;1.50;99.90
6863;DHT22;3470;48.738;9.616;2023-03-05T23:02:19;1.50;99.90
6863;DHT22;3470;48.738;9.616;2023-03-05T23:04:49;1.40;99.90
6863;DHT22;3470;48.738;9.616;2023-03-05T23:07:29;1.50;99.90
6863;DHT22;3470;48.738;9.616;2023-03-05T23:10:07;1.40;99.90
6863;DHT22;3470;48.738;9.616;2023-03-05T23:12:35;1.50;99.90
6863;DHT22;3470;48.738;9.616;2023-03-05T23:15:05;1.40;99.90
6863;DHT22;3470;48.738;9.616;2023-03-05T23:17:31;1.40;99.90
6863;DHT22;3470;48.738;9.616;2023-03-05T23:19:57;1.40;99.90
6863;DHT22;3470;48.738;9.616;2023-03-05T23:22:23;1.40;99.90
6863;DHT22;3470;48.738;9.616;2023-03-05T23:24:48;1.30;99.90
6863;DHT22;3470;48.738;9.616;2023-03-05T23:27:16;1.40;99.90
6863;DHT22;3470;48.738;9.616;2023-03-05T23:30:18;1.40;99.90
6863;DHT22;3470;48.738;9.616;2023-03-05T23:32:53;1.40;99.90
6863;DHT22;3470;48.738;9.616;2023-03-05T23:35:30;1.40;99.90
6863;DHT22;3470;48.738;9.616;2023-03-05T23:37:58;1.40;99.90
